Consulta les dades en temps real de l'estació municipal de Susqueda - Veïnat del Coll
| Hora UTC | 02:55 |
|---|---|
| Temperatura | 9.7 ºC |
| Humitat | 81.8 % |
| Pressió | 1017.2 hPa |
| Pluja | 0.0 mm |
| Velocitat vent | 5.5 km/h |
| Direcció vent | WSW |
| Radiació solar | 0.1 W/m² |
| Temperatura (ºC) | Humitat (%) | Pressió (hPa) | Velocitat vent (km/h) | Precipitació (mm) | Radiació solar (W/m²) | |||||||||||||
|---|---|---|---|---|---|---|---|---|---|---|---|---|---|---|---|---|---|---|
| Hora UTC | Aire | Humitat | Pressió | Vel. | Dir. | Vel. Max | Dir. | Intent. màx 5 min. | Rad. Sol. | |||||||||
| 00:05 | 9.1 | 81.5 | 1018.7 | 4.4 | SW | 4.4 | SW | 0.0 | 0.1 | |||||||||
| 00:10 | 9.1 | 81.7 | 1018.7 | 4.0 | SW | 8.8 | W | 0.0 | 0.1 | |||||||||
| 00:15 | 9.1 | 81.9 | 1018.7 | 4.1 | SW | 9.2 | SW | 0.0 | 0.1 | |||||||||
| 00:20 | 9.1 | 82.8 | 1018.7 | 4.1 | WSW | 9.9 | WSW | 0.0 | 0.1 | |||||||||
| 00:25 | 9.1 | 83.8 | 1018.5 | 4.1 | WSW | 8.1 | SSW | 0.0 | 0.1 | |||||||||
| 00:30 | 9.1 | 84.9 | 1018.5 | 3.5 | SW | 12.0 | SW | 0.0 | 0.1 | |||||||||
| 00:35 | 9.1 | 85.4 | 1018.5 | 3.7 | SW | 7.1 | SSW | 0.0 | 0.1 | |||||||||
| 00:40 | 9.0 | 85.7 | 1018.5 | 2.9 | SW | 6.7 | WSW | 0.0 | 0.1 | |||||||||
| 00:45 | 9.0 | 86.0 | 1018.3 | 4.8 | SSW | 9.9 | S | 0.0 | 0.1 | |||||||||
| 00:50 | 9.2 | 75.9 | 1018.3 | 6.4 | S | 11.3 | SSW | 0.0 | 0.1 | |||||||||
| 00:55 | 9.7 | 71.3 | 1018.3 | 3.3 | SW | 8.1 | SSE | 0.0 | 0.1 | |||||||||
| 01:00 | 9.5 | 82.1 | 1018.3 | 3.4 | SW | 6.7 | WSW | 0.0 | 0.1 | |||||||||
| 01:05 | 9.2 | 85.5 | 1018.1 | 3.7 | SW | 7.1 | SW | 0.0 | 0.1 | |||||||||
| 01:10 | 9.1 | 86.7 | 1018.1 | 3.5 | WSW | 7.1 | WSW | 0.0 | 0.1 | |||||||||
| 01:15 | 9.1 | 87.5 | 1017.9 | 3.4 | WSW | 7.1 | W | 0.0 | 0.1 | |||||||||
| 01:20 | 9.0 | 88.1 | 1017.9 | 3.4 | SW | 6.4 | SSW | 0.0 | 0.1 | |||||||||
| 01:25 | 9.0 | 88.6 | 1017.9 | 3.2 | WSW | 7.1 | SSW | 0.0 | 0.1 | |||||||||
| 01:30 | 9.0 | 89.1 | 1017.9 | 3.1 | SW | 5.6 | S | 0.0 | 0.1 | |||||||||
| 01:35 | 8.9 | 89.4 | 1017.9 | 3.9 | SW | 8.1 | SSW | 0.0 | 0.1 | |||||||||
| 01:40 | 8.9 | 90.5 | 1017.9 | 4.0 | SW | 8.1 | SW | 0.0 | 0.1 | |||||||||
| 01:45 | 8.9 | 91.2 | 1017.9 | 3.3 | WSW | 7.4 | SW | 0.0 | 0.1 | |||||||||
| 01:50 | 9.0 | 91.3 | 1017.9 | 2.7 | SW | 6.0 | SSW | 0.0 | 0.1 | |||||||||
| 01:55 | 9.0 | 92.2 | 1017.8 | 4.0 | SW | 8.5 | SW | 0.0 | 0.1 | |||||||||
| 02:00 | 8.9 | 92.2 | 1017.8 | 4.2 | SW | 7.1 | SSW | 0.0 | 0.1 | |||||||||
| 02:05 | 8.8 | 89.2 | 1017.5 | 5.7 | SSW | 10.2 | S | 0.0 | 0.1 | |||||||||
| 02:10 | 9.0 | 81.8 | 1017.5 | 8.1 | S | 13.4 | S | 0.0 | 0.1 | |||||||||
| 02:15 | 9.4 | 66.6 | 1017.4 | 10.4 | SSE | 18.4 | SSE | 0.0 | 0.1 | |||||||||
| 02:20 | 10.1 | 52.5 | 1017.4 | 11.9 | S | 21.2 | SW | 0.0 | 0.1 | |||||||||
| 02:25 | 10.6 | 43.4 | 1017.3 | 13.2 | S | 22.2 | S | 0.0 | 0.1 | |||||||||
| 02:30 | 11.0 | 40.3 | 1017.3 | 7.4 | S | 20.8 | S | 0.0 | 0.1 | |||||||||
| 02:35 | 10.9 | 64.2 | 1017.3 | 3.9 | W | 9.2 | W | 0.0 | 0.1 | |||||||||
| 02:40 | 10.1 | 79.9 | 1017.3 | 5.5 | SW | 11.6 | S | 0.0 | 0.1 | |||||||||
| 02:45 | 9.8 | 69.0 | 1017.2 | 5.8 | S | 11.6 | SSW | 0.0 | 0.1 | |||||||||
| 02:50 | 10.0 | 64.0 | 1017.2 | 4.2 | SSW | 9.5 | S | 0.0 | 0.1 | |||||||||
| 02:55 | 9.7 | 81.8 | 1017.2 | 5.5 | WSW | 12.0 | W | 0.0 | 0.1 | |||||||||
| Màxima | 11.0 | 92.2 | 1018.7 | 13.2 | S | 22.2 | S | 0.0 | 0.1 | |||||||||
| Mínima | 8.8 | 40.3 | 1017.2 | |||||||||||||||
| Total | 0.0 | |||||||||||||||||